📊 Raw Sensor Data

Showing records 49901 to 49925 of 85,126 total

ID Distance (ft) Battery V Battery A Int Temp (°F) Int Humid (%) Ext Temp (°F) Solar V RSSI SNR Time Stamp
35238 15.2 4.04 0 60 39 56 5.10 -80 7 03/17/2025 12:45 PM
35237 -- 4.04 0 59 39 59 5.10 -82 8 03/17/2025 12:30 PM
35236 15.1 4.04 0 54 41 53 5.10 -80 7 03/17/2025 12:15 PM
35235 15.1 4.04 0 55 42 55 5.10 -80 8 03/17/2025 12:00 PM
35234 15.1 4.10 35 52 44 48 4.50 -82 7 03/17/2025 11:45 AM
35233 -- 4.04 0 61 39 57 5.10 -75 8 03/17/2025 11:30 AM
35232 -- 4.04 0 61 37 58 5.10 -76 8 03/17/2025 11:00 AM
35231 -- 4.04 0 60 37 62 5.10 -75 9 03/17/2025 10:45 AM
35230 15.2 4.04 0 58 37 59 5.10 -81 8 03/17/2025 10:30 AM
35229 15.2 4.04 0 58 37 60 5.10 -79 6 03/17/2025 10:15 AM
35228 15.2 4.04 0 56 37 58 5.10 -79 7 03/17/2025 10:00 AM
35227 15.2 4.04 0 54 38 58 5.10 -80 7 03/17/2025 09:45 AM
35226 15.1 4.04 5 52 38 55 5.10 -79 7 03/17/2025 09:30 AM
35225 15.1 4.04 0 50 38 51 5.10 -79 7 03/17/2025 09:00 AM
35224 15.1 4.10 29 50 39 50 4.50 -80 7 03/17/2025 08:45 AM
35223 -- 4.03 18 49 39 50 4.50 -79 7 03/17/2025 08:30 AM
35222 15.1 4.05 10 49 39 49 4.50 -80 8 03/17/2025 08:15 AM
35221 15.1 4.04 5 48 39 49 4.50 -79 7 03/17/2025 08:00 AM
35220 15.1 3.98 0 47 39 48 4.50 -80 6 03/17/2025 07:45 AM
35219 15.1 4.01 -9 47 40 48 3.30 -80 7 03/17/2025 07:15 AM
35218 -- 3.97 -5 48 40 48 0.40 -80 8 03/17/2025 07:01 AM
35217 15.1 3.97 -5 47 40 48 0.10 -80 7 03/17/2025 06:31 AM
35216 -- 3.97 -5 48 40 48 0.10 -82 7 03/17/2025 06:15 AM
35215 -- 3.97 -5 48 40 48 0.00 -82 7 03/17/2025 06:00 AM
35214 -- 4.02 -5 48 40 48 0.00 -82 7 03/17/2025 05:45 AM